createdAt,value
2019-05-17T00:02:19.178Z,72.21
2019-05-17T00:04:49.524Z,72.12
2019-05-17T00:07:20.237Z,72.04
2019-05-17T00:09:50.755Z,71.91
2019-05-17T00:12:21.487Z,71.91
2019-05-17T00:14:52.502Z,71.99
2019-05-17T00:17:22.930Z,71.98
2019-05-17T00:19:53.379Z,72.21
2019-05-17T00:22:23.789Z,72.13
2019-05-17T00:24:56.681Z,72.45
2019-05-17T00:27:27.409Z,72.66
2019-05-17T00:29:57.872Z,72.47
2019-05-17T00:32:28.364Z,72.49
2019-05-17T00:34:58.765Z,72.30
2019-05-17T00:37:29.228Z,71.97
2019-05-17T00:39:59.580Z,71.64
2019-05-17T00:42:29.957Z,71.57
2019-05-17T00:45:00.422Z,71.73
2019-05-17T00:47:30.822Z,71.82
2019-05-17T00:50:01.205Z,72.16
2019-05-17T00:52:31.521Z,72.55
2019-05-17T00:55:01.963Z,72.70
2019-05-17T00:57:32.442Z,73.11
2019-05-17T01:00:03.506Z,73.65
2019-05-17T01:02:36.214Z,73.91
2019-05-17T01:05:06.879Z,74.06
2019-05-17T01:07:39.060Z,74.28
2019-05-17T01:10:10.425Z,74.47
2019-05-17T01:12:42.638Z,74.40
2019-05-17T01:15:13.931Z,74.44
2019-05-17T01:17:47.381Z,74.66
2019-05-17T01:20:18.122Z,74.67
2019-05-17T01:22:48.540Z,74.65
2019-05-17T01:25:20.055Z,74.83
2019-05-17T01:27:52.012Z,75.23
2019-05-17T01:30:22.464Z,75.25
2019-05-17T01:32:53.524Z,75.44
2019-05-17T01:35:26.462Z,75.68
2019-05-17T01:37:56.540Z,75.76
2019-05-17T01:40:27.427Z,75.77
2019-05-17T01:42:58.335Z,75.97
2019-05-17T01:45:28.749Z,75.96
2019-05-17T01:47:59.150Z,75.97
2019-05-17T01:50:29.597Z,75.71
2019-05-17T01:52:59.921Z,75.59
2019-05-17T01:55:30.298Z,75.45
2019-05-17T01:58:00.716Z,75.29
2019-05-17T02:00:31.142Z,75.07
2019-05-17T02:03:01.569Z,75.14
2019-05-17T02:05:32.118Z,75.03
2019-05-17T02:08:02.445Z,74.89
2019-05-17T02:10:32.820Z,74.70
2019-05-17T02:13:03.721Z,74.66
2019-05-17T02:15:34.192Z,74.50
2019-05-17T02:18:07.093Z,74.36
2019-05-17T02:20:37.531Z,74.39
2019-05-17T02:23:08.025Z,74.37
2019-05-17T02:25:38.339Z,74.35
2019-05-17T02:28:08.801Z,74.29
2019-05-17T02:30:39.308Z,74.04
2019-05-17T02:33:12.624Z,74.01
2019-05-17T02:35:42.900Z,73.95
2019-05-17T02:38:14.160Z,73.67
2019-05-17T02:40:45.381Z,73.75
2019-05-17T02:43:15.786Z,73.59
2019-05-17T02:45:46.166Z,73.62
2019-05-17T02:48:23.433Z,73.23
2019-05-17T02:50:54.356Z,72.97
2019-05-17T02:53:24.691Z,72.95
2019-05-17T02:55:55.167Z,72.94
2019-05-17T02:58:25.525Z,72.56
2019-05-17T03:00:56.543Z,72.30
2019-05-17T03:03:27.035Z,72.17
2019-05-17T03:05:57.409Z,71.99
2019-05-17T03:08:28.080Z,71.71
2019-05-17T03:10:58.514Z,71.19
2019-05-17T03:13:28.940Z,70.79
2019-05-17T03:15:59.298Z,70.30
2019-05-17T03:18:33.056Z,69.94
2019-05-17T03:21:03.769Z,69.24
2019-05-17T03:23:34.741Z,68.36
2019-05-17T03:26:05.203Z,67.88
2019-05-17T03:28:35.646Z,67.54
2019-05-17T03:31:08.764Z,67.33
2019-05-17T03:33:38.569Z,66.45
2019-05-17T03:36:09.010Z,65.63
2019-05-17T03:38:39.431Z,64.47
2019-05-17T03:41:22.220Z,63.38
2019-05-17T03:43:44.202Z,62.96
2019-05-17T03:46:14.371Z,62.84
2019-05-17T03:48:44.773Z,63.26
2019-05-17T03:51:15.213Z,62.68
2019-05-17T03:53:45.587Z,61.65
2019-05-17T03:56:16.004Z,60.29
2019-05-17T03:58:46.328Z,60.60
2019-05-17T04:01:16.943Z,60.26
2019-05-17T04:03:47.607Z,57.96
2019-05-17T04:06:18.075Z,57.53
2019-05-17T04:08:48.445Z,57.21
2019-05-17T04:11:27.996Z,57.03
2019-05-17T04:13:53.783Z,56.47
2019-05-17T04:16:23.949Z,56.16
2019-05-17T04:18:54.562Z,55.66
2019-05-17T04:21:25.848Z,54.26
2019-05-17T04:23:56.638Z,53.54
2019-05-17T04:26:26.990Z,52.42
2019-05-17T04:28:57.392Z,51.81
2019-05-17T04:31:30.568Z,51.26
2019-05-17T04:34:03.113Z,53.00
2019-05-17T04:36:32.399Z,53.22
2019-05-17T04:39:02.904Z,51.91
2019-05-17T04:41:45.017Z,50.18
2019-05-17T04:44:05.516Z,49.16
2019-05-17T04:46:35.966Z,47.23
2019-05-17T04:49:06.436Z,47.49
2019-05-17T04:51:36.944Z,46.39
2019-05-17T04:54:07.380Z,46.85
2019-05-17T04:56:37.740Z,46.42
2019-05-17T04:59:08.117Z,45.71
2019-05-17T05:01:38.622Z,45.85
2019-05-17T05:04:08.989Z,45.16
2019-05-17T05:06:39.551Z,44.47
2019-05-17T05:09:12.783Z,45.93
2019-05-17T05:11:55.670Z,44.75
2019-05-17T05:14:14.646Z,44.25
2019-05-17T05:16:45.567Z,43.46
2019-05-17T05:19:15.927Z,43.54
2019-05-17T05:21:47.189Z,43.25
2019-05-17T05:24:17.641Z,43.54
2019-05-17T05:26:48.010Z,44.04
2019-05-17T05:29:18.393Z,43.62
2019-05-17T05:31:48.883Z,43.18
2019-05-17T05:34:21.466Z,43.17
2019-05-17T05:36:52.491Z,43.52
2019-05-17T05:39:22.961Z,44.13
2019-05-17T05:42:06.495Z,44.51
2019-05-17T05:44:25.555Z,46.18
2019-05-17T05:46:56.011Z,46.10
2019-05-17T05:49:26.592Z,45.85
2019-05-17T05:51:57.157Z,45.19
2019-05-17T05:54:28.925Z,46.49
2019-05-17T05:57:02.090Z,46.33
2019-05-17T05:59:32.607Z,45.99
2019-05-17T06:02:03.988Z,46.23
2019-05-17T06:04:35.107Z,46.27
2019-05-17T06:07:05.537Z,46.43
2019-05-17T06:09:35.958Z,46.26
2019-05-17T06:12:18.970Z,45.50
2019-05-17T06:14:38.571Z,44.31
2019-05-17T06:17:09.070Z,43.54
2019-05-17T06:19:42.063Z,42.58
2019-05-17T06:22:12.970Z,42.80
2019-05-17T06:24:43.621Z,43.97
2019-05-17T06:27:14.038Z,45.64
2019-05-17T06:29:47.169Z,45.62
2019-05-17T06:32:17.882Z,44.86
2019-05-17T06:34:48.395Z,44.00
2019-05-17T06:37:18.765Z,41.35
2019-05-17T06:39:49.159Z,40.81
2019-05-17T06:42:22.934Z,39.61
2019-05-17T06:44:52.348Z,38.89
2019-05-17T06:47:22.790Z,38.66
2019-05-17T06:49:53.643Z,39.20
2019-05-17T06:52:24.144Z,39.73
2019-05-17T06:54:54.547Z,40.45
2019-05-17T06:57:24.894Z,40.01
2019-05-17T06:59:55.206Z,39.57
2019-05-17T07:02:25.621Z,39.73
2019-05-17T07:04:57.684Z,39.88
2019-05-17T07:07:30.489Z,38.80
2019-05-17T07:10:01.220Z,38.74
2019-05-17T07:12:33.109Z,39.11
2019-05-17T07:15:03.685Z,41.09
2019-05-17T07:17:34.167Z,41.71
2019-05-17T07:20:06.232Z,43.84
2019-05-17T07:22:37.058Z,43.41
2019-05-17T07:25:10.477Z,42.45
2019-05-17T07:27:45.915Z,43.52
2019-05-17T07:30:16.468Z,45.97
2019-05-17T07:32:46.833Z,46.16
2019-05-17T07:35:19.614Z,45.65
2019-05-17T07:37:50.174Z,45.00
2019-05-17T07:40:21.703Z,46.43
2019-05-17T07:42:52.095Z,47.20
2019-05-17T07:45:22.894Z,47.00
2019-05-17T07:47:53.436Z,46.19
2019-05-17T07:50:23.856Z,44.75
2019-05-17T07:52:54.369Z,45.05
2019-05-17T07:55:24.766Z,44.95
2019-05-17T07:57:55.169Z,46.18
2019-05-17T08:00:25.706Z,46.15
2019-05-17T08:02:56.680Z,46.52
2019-05-17T08:05:29.488Z,47.32
2019-05-17T08:08:00.135Z,47.69
2019-05-17T08:10:31.885Z,49.66
2019-05-17T08:13:02.732Z,50.30
2019-05-17T08:15:35.744Z,52.89
2019-05-17T08:18:10.486Z,53.30
2019-05-17T08:20:40.294Z,53.66
2019-05-17T08:23:11.279Z,52.77
2019-05-17T08:25:52.605Z,52.07
2019-05-17T08:28:14.986Z,52.79
2019-05-17T08:30:45.472Z,52.60
2019-05-17T08:33:16.213Z,53.00
2019-05-17T08:35:46.597Z,52.72
2019-05-17T08:38:19.575Z,53.06
2019-05-17T08:40:50.907Z,51.74
2019-05-17T08:43:22.731Z,53.14
2019-05-17T08:45:53.263Z,53.92
2019-05-17T08:48:23.617Z,55.35
2019-05-17T08:50:54.189Z,56.76
2019-05-17T08:53:24.555Z,59.55
2019-05-17T08:55:54.995Z,60.25
2019-05-17T08:58:25.493Z,62.89
2019-05-17T09:00:55.876Z,64.37
2019-05-17T09:03:26.229Z,66.01
2019-05-17T09:06:01.472Z,66.80
2019-05-17T09:08:29.911Z,66.31
2019-05-17T09:11:00.665Z,65.67
2019-05-17T09:13:31.177Z,65.12
2019-05-17T09:16:01.596Z,64.86
2019-05-17T09:18:32.068Z,65.16
2019-05-17T09:21:02.373Z,64.72
2019-05-17T09:23:32.836Z,64.88
2019-05-17T09:26:03.254Z,65.58
2019-05-17T09:28:34.636Z,65.48
2019-05-17T09:31:05.403Z,64.22
2019-05-17T09:33:40.536Z,62.99
2019-05-17T09:36:10.533Z,61.71
2019-05-17T09:38:40.921Z,61.83
2019-05-17T09:41:11.976Z,62.35
2019-05-17T09:43:42.345Z,64.24
2019-05-17T09:46:12.887Z,66.15
2019-05-17T09:48:46.823Z,65.52
2019-05-17T09:51:15.966Z,65.66
2019-05-17T09:53:46.447Z,64.12
2019-05-17T09:56:17.236Z,63.42
2019-05-17T09:58:49.423Z,63.34
2019-05-17T10:01:20.000Z,64.60
2019-05-17T10:03:50.772Z,64.37
2019-05-17T10:06:21.379Z,64.45
2019-05-17T10:08:52.147Z,63.02
2019-05-17T10:11:22.569Z,61.75
2019-05-17T10:13:52.969Z,63.31
2019-05-17T10:16:24.110Z,63.26
2019-05-17T10:18:54.528Z,63.88
2019-05-17T10:21:25.909Z,63.41
2019-05-17T10:23:56.482Z,63.40
2019-05-17T10:26:26.843Z,64.83
2019-05-17T10:28:59.417Z,64.92
2019-05-17T10:31:30.512Z,65.48
2019-05-17T10:34:01.202Z,65.64
2019-05-17T10:36:32.106Z,65.97
2019-05-17T10:39:02.768Z,65.27
2019-05-17T10:41:34.068Z,64.75
2019-05-17T10:44:04.515Z,64.61
2019-05-17T10:46:35.011Z,64.63
2019-05-17T10:49:05.479Z,64.58
2019-05-17T10:51:35.966Z,64.38
2019-05-17T10:54:09.445Z,64.12
2019-05-17T10:56:39.350Z,63.27
2019-05-17T10:59:10.715Z,64.22
2019-05-17T11:01:41.464Z,64.76
2019-05-17T11:04:11.885Z,66.21
2019-05-17T11:06:44.012Z,67.25
2019-05-17T11:09:14.559Z,67.28
2019-05-17T11:11:45.007Z,67.10
2019-05-17T11:14:15.921Z,67.32
2019-05-17T11:16:46.374Z,67.50
2019-05-17T11:19:16.841Z,67.89
2019-05-17T11:21:47.661Z,67.89
2019-05-17T11:24:18.477Z,68.38
2019-05-17T11:26:49.570Z,68.43
2019-05-17T11:29:20.180Z,68.67
2019-05-17T11:31:50.673Z,69.52
2019-05-17T11:34:24.941Z,70.17
2019-05-17T11:36:53.254Z,70.82
2019-05-17T11:39:23.667Z,71.52
2019-05-17T11:41:54.093Z,71.70
2019-05-17T11:44:24.524Z,72.16
2019-05-17T11:46:54.981Z,72.16
2019-05-17T11:49:25.639Z,72.82
2019-05-17T11:51:56.153Z,73.88
2019-05-17T11:54:26.528Z,74.21
2019-05-17T11:56:56.879Z,74.33
2019-05-17T11:59:27.486Z,74.28
2019-05-17T12:01:57.968Z,73.61
2019-05-17T12:04:28.357Z,73.96
2019-05-17T12:06:58.878Z,73.94
2019-05-17T12:09:37.500Z,73.32
2019-05-17T12:12:01.519Z,73.41
2019-05-17T12:14:32.129Z,73.48
2019-05-17T12:17:02.492Z,75.02
2019-05-17T12:19:32.983Z,74.33
2019-05-17T12:22:03.523Z,73.27
2019-05-17T12:24:33.941Z,73.04
2019-05-17T12:27:04.578Z,72.69
2019-05-17T12:29:35.096Z,72.35
2019-05-17T12:32:06.550Z,72.25
2019-05-17T12:34:36.934Z,71.53
2019-05-17T12:37:07.408Z,71.39
2019-05-17T12:39:37.854Z,71.12
2019-05-17T12:42:08.615Z,71.17
2019-05-17T12:44:39.060Z,70.96
2019-05-17T12:47:09.904Z,70.70
2019-05-17T12:49:40.272Z,69.94
2019-05-17T12:52:11.107Z,70.04
2019-05-17T12:54:41.536Z,69.90
2019-05-17T12:57:11.883Z,70.43
2019-05-17T12:59:42.342Z,70.46
2019-05-17T13:02:12.767Z,70.53
2019-05-17T13:04:43.242Z,70.79
2019-05-17T13:07:14.865Z,71.39
2019-05-17T13:09:45.257Z,71.54
2019-05-17T13:12:15.645Z,71.83
2019-05-17T13:14:46.286Z,71.84
2019-05-17T13:17:16.903Z,71.80
2019-05-17T13:19:47.364Z,71.58
2019-05-17T13:22:17.921Z,71.92
2019-05-17T13:24:48.279Z,72.10
2019-05-17T13:27:18.639Z,72.94
2019-05-17T13:29:49.448Z,73.79
2019-05-17T13:32:19.989Z,73.88
2019-05-17T13:34:50.789Z,73.64
2019-05-17T13:37:21.244Z,73.72
2019-05-17T13:39:51.595Z,73.50
2019-05-17T13:42:22.030Z,73.77
2019-05-17T13:44:52.513Z,74.14
2019-05-17T13:47:23.793Z,73.90
2019-05-17T13:49:54.259Z,73.38
2019-05-17T13:52:25.238Z,73.49
2019-05-17T13:54:55.573Z,74.17
2019-05-17T13:57:25.994Z,74.52
2019-05-17T13:59:56.421Z,74.34
2019-05-17T14:02:26.950Z,74.45
2019-05-17T14:04:57.308Z,74.22
2019-05-17T14:07:27.841Z,73.79
2019-05-17T14:09:58.178Z,73.37
2019-05-17T14:12:28.646Z,73.05
2019-05-17T14:14:59.210Z,72.55
2019-05-17T14:17:29.574Z,72.06
2019-05-17T14:19:59.976Z,71.49
2019-05-17T14:22:30.504Z,71.04
2019-05-17T14:25:01.534Z,70.02
2019-05-17T14:27:31.914Z,69.73
2019-05-17T14:30:02.582Z,70.03
2019-05-17T14:42:58.486Z,75.10
2019-05-17T14:45:29.340Z,75.72
2019-05-17T14:48:00.152Z,76.20
2019-05-17T14:50:30.973Z,76.96
2019-05-17T14:53:02.040Z,76.56
2019-05-17T14:55:32.705Z,76.77
2019-05-17T14:58:05.344Z,77.78
2019-05-17T15:00:37.642Z,77.91
2019-05-17T15:03:08.633Z,78.14
2019-05-17T15:05:39.519Z,78.12
2019-05-17T15:08:11.298Z,77.52
2019-05-17T15:10:42.114Z,77.44
2019-05-17T15:13:12.735Z,77.55
2019-05-17T15:15:43.684Z,76.81
2019-05-17T15:18:14.316Z,76.62
2019-05-17T15:21:06.813Z,77.01
2019-05-17T15:23:39.223Z,76.27
2019-05-17T15:26:10.009Z,76.10
2019-05-17T15:28:40.885Z,75.99
2019-05-17T15:31:11.699Z,75.46
2019-05-17T15:33:42.576Z,75.46
2019-05-17T15:36:14.717Z,75.16
2019-05-17T15:38:46.020Z,75.04
2019-05-17T15:41:17.021Z,75.27
2019-05-17T15:43:47.784Z,74.57
2019-05-17T15:46:19.225Z,74.81
2019-05-17T15:48:50.370Z,74.67
2019-05-17T15:51:21.211Z,74.44
2019-05-17T15:53:52.095Z,74.49
2019-05-17T16:15:29.344Z,75.68
2019-05-17T16:18:00.085Z,75.99
2019-05-17T16:20:31.568Z,76.32
2019-05-17T16:23:03.123Z,76.50
2019-05-17T16:25:34.156Z,76.60
2019-05-17T16:28:05.139Z,76.52
2019-05-17T16:30:35.985Z,76.54
2019-05-17T16:33:06.811Z,76.85
2019-05-17T16:35:37.645Z,77.04
2019-05-17T16:38:10.022Z,77.00
2019-05-17T16:40:40.853Z,76.61
2019-05-17T16:43:18.241Z,75.74
2019-05-17T16:45:45.215Z,74.96
2019-05-17T16:48:16.172Z,74.90
2019-05-17T16:50:46.822Z,73.35
2019-05-17T16:53:17.525Z,73.31
2019-05-17T16:55:48.447Z,71.72
2019-05-17T16:58:19.379Z,70.56
2019-05-17T17:00:50.575Z,69.69
2019-05-17T17:03:21.552Z,68.80
2019-05-17T17:05:52.383Z,69.29
2019-05-17T17:08:23.278Z,69.22
2019-05-17T17:10:53.771Z,68.53
2019-05-17T17:13:32.751Z,67.71
2019-05-17T17:15:56.733Z,65.48
2019-05-17T17:18:27.619Z,65.89
2019-05-17T17:20:58.291Z,65.06
2019-05-17T17:23:29.005Z,65.62
2019-05-17T17:25:59.961Z,68.06
2019-05-17T17:28:30.396Z,67.47
2019-05-17T17:31:01.256Z,69.07
2019-05-17T17:33:31.796Z,71.42
2019-05-17T17:36:05.144Z,72.01
2019-05-17T17:38:37.194Z,71.69
2019-05-17T17:41:07.739Z,71.37
2019-05-17T17:43:38.069Z,70.62
2019-05-17T17:46:08.496Z,69.48
2019-05-17T17:48:39.103Z,68.45
2019-05-17T17:51:09.701Z,70.20
2019-05-17T17:53:40.245Z,71.23
2019-05-17T17:56:13.563Z,70.34
2019-05-17T17:58:44.072Z,69.84
2019-05-17T18:01:14.671Z,69.58
2019-05-17T18:03:45.398Z,68.38
2019-05-17T18:06:16.088Z,66.97
2019-05-17T18:08:46.691Z,66.78
2019-05-17T18:11:17.632Z,67.13
2019-05-17T18:13:48.226Z,67.50
2019-05-17T18:16:18.873Z,68.13
2019-05-17T18:18:49.508Z,68.72
2019-05-17T18:21:20.215Z,69.20
2019-05-17T18:23:53.295Z,70.05
2019-05-17T18:26:23.842Z,70.23
2019-05-17T18:28:54.224Z,70.06
2019-05-17T18:31:25.212Z,69.78
2019-05-17T18:33:55.951Z,68.54
2019-05-17T18:36:26.295Z,67.92
2019-05-17T18:38:58.793Z,66.85
2019-05-17T18:41:29.357Z,66.31
2019-05-17T18:43:59.952Z,65.49
2019-05-17T18:46:30.535Z,64.96
2019-05-17T18:49:01.111Z,65.63
2019-05-17T18:51:31.864Z,65.64
2019-05-17T18:54:03.415Z,65.04
2019-05-17T18:56:33.882Z,64.18
2019-05-17T18:59:04.445Z,62.49
2019-05-17T19:01:35.052Z,61.73
2019-05-17T19:04:05.602Z,63.31
2019-05-17T19:06:37.076Z,64.53
2019-05-17T19:09:09.950Z,64.23
2019-05-17T19:11:40.720Z,65.06
2019-05-17T19:14:11.685Z,64.55
2019-05-17T19:16:42.601Z,61.20
2019-05-17T19:19:13.175Z,57.16
2019-05-17T19:21:44.939Z,56.48
2019-05-17T19:24:15.640Z,58.28
2019-05-17T19:26:46.301Z,59.91
2019-05-17T19:29:16.667Z,60.50
2019-05-17T19:31:47.849Z,60.27
2019-05-17T19:34:19.352Z,60.50
2019-05-17T19:36:49.789Z,59.91
2019-05-17T19:39:22.279Z,59.80
2019-05-17T19:41:52.828Z,57.65
2019-05-17T19:44:23.280Z,56.94
2019-05-17T19:46:53.819Z,57.31
2019-05-17T19:49:25.018Z,58.78
2019-05-17T19:51:56.312Z,60.43
2019-05-17T19:54:26.945Z,61.77
2019-05-17T19:56:57.556Z,62.50
2019-05-17T19:59:28.153Z,62.88
2019-05-17T20:01:58.706Z,63.73
2019-05-17T20:04:29.187Z,64.18
2019-05-17T20:07:00.263Z,64.55
2019-05-17T20:09:30.751Z,64.66
2019-05-17T20:12:01.240Z,63.97
2019-05-17T20:14:31.849Z,63.72
2019-05-17T20:17:02.628Z,64.08
2019-05-17T20:19:33.094Z,64.52
2019-05-17T20:22:03.830Z,64.52
2019-05-17T20:24:34.665Z,64.33
2019-05-17T20:27:05.428Z,64.36
2019-05-17T20:29:36.742Z,64.32
2019-05-17T20:32:07.368Z,64.84
2019-05-17T20:34:37.783Z,64.70
2019-05-17T20:37:09.268Z,63.45
2019-05-17T20:39:40.971Z,61.79
2019-05-17T20:42:11.481Z,60.34
2019-05-17T20:44:42.286Z,58.98
2019-05-17T20:47:12.791Z,58.38
2019-05-17T20:49:43.466Z,58.38
2019-05-17T20:52:14.830Z,58.75
2019-05-17T20:54:45.377Z,61.27
2019-05-17T20:57:19.792Z,66.21
2019-05-17T20:59:50.064Z,65.59
2019-05-17T21:02:20.447Z,64.45
2019-05-17T21:04:50.620Z,63.84
2019-05-17T21:07:21.009Z,61.81
2019-05-17T21:09:51.278Z,60.24
2019-05-17T21:12:21.522Z,59.07
2019-05-17T21:14:56.166Z,58.23
2019-05-17T21:17:24.586Z,57.59
2019-05-17T21:19:54.820Z,56.99
2019-05-17T21:22:25.860Z,57.41
2019-05-17T21:24:56.103Z,58.32
2019-05-17T21:27:26.369Z,59.24
2019-05-17T21:29:56.793Z,66.57
2019-05-17T21:32:27.024Z,69.18
2019-05-17T21:34:57.237Z,69.87
2019-05-17T21:37:27.536Z,69.71
2019-05-17T21:39:58.870Z,68.03
2019-05-17T21:42:29.178Z,67.70
2019-05-17T21:44:59.828Z,65.82
2019-05-17T21:47:32.209Z,68.15
2019-05-17T21:50:02.503Z,67.01
2019-05-17T21:52:32.832Z,67.10
2019-05-17T21:55:03.074Z,67.40
2019-05-17T21:57:35.245Z,68.72
2019-05-17T22:00:09.405Z,69.56
2019-05-17T22:02:41.974Z,69.75
2019-05-17T22:05:12.654Z,70.23
2019-05-17T22:07:43.185Z,70.39
2019-05-17T22:10:17.068Z,70.91
2019-05-17T22:12:47.736Z,71.21
2019-05-17T22:15:18.787Z,71.55
2019-05-17T22:17:49.419Z,71.78
2019-05-17T22:20:20.044Z,72.26
2019-05-17T22:22:50.446Z,73.15
2019-05-17T22:25:21.308Z,73.49
2019-05-17T22:27:54.750Z,73.36
2019-05-17T22:30:25.138Z,73.31
2019-05-17T22:32:58.104Z,73.96
2019-05-17T22:35:28.843Z,74.38
2019-05-17T22:37:59.256Z,74.85
2019-05-17T22:40:30.983Z,74.99
2019-05-17T22:43:01.651Z,75.29
2019-05-17T22:45:34.189Z,75.34
2019-05-17T22:48:04.788Z,75.45
2019-05-17T22:50:35.560Z,75.82
2019-05-17T22:53:06.099Z,75.85
2019-05-17T22:55:36.908Z,76.25
2019-05-17T22:58:07.369Z,76.65
2019-05-17T23:00:38.175Z,76.64
2019-05-17T23:03:09.069Z,76.59
2019-05-17T23:05:39.643Z,76.56
2019-05-17T23:08:10.622Z,76.93
2019-05-17T23:10:41.306Z,77.09
2019-05-17T23:13:12.231Z,77.03
2019-05-17T23:16:02.960Z,77.32
2019-05-17T23:19:10.106Z,77.48
2019-05-17T23:21:40.875Z,77.54
2019-05-17T23:24:11.977Z,77.95
2019-05-17T23:26:43.068Z,78.20
2019-05-17T23:29:14.022Z,78.08
2019-05-17T23:31:45.220Z,78.10
2019-05-17T23:34:15.573Z,77.68
2019-05-17T23:36:48.331Z,77.46
2019-05-17T23:39:18.751Z,77.01
2019-05-17T23:41:50.523Z,76.99
2019-05-17T23:44:24.302Z,76.69
2019-05-17T23:47:06.565Z,76.61
2019-05-17T23:49:27.610Z,76.39
2019-05-17T23:51:58.817Z,76.24
2019-05-17T23:54:29.747Z,76.19
2019-05-17T23:57:00.339Z,75.93
2019-05-17T23:59:32.260Z,76.18
